Flight Track Log - Related Links

Times and Time Zones

All times are in EDT time to prevent confusion due to time zone crossing. See the N6521Y flight status page for this flight to view local times or setup timezone preferences in your user account.

Time Position Orientation Groundspeed Altitude Reporting Facility
EDT Latitude Longitude Course Direction KTS MPH feet Rate Location/Type
Tue 09:38:21 AM 43.2167 -75.3917 245° Southwest 81 93 1,600  Level Boston Center
Tue 09:39:39 AM 43.2031 -75.4311 245° Southwest 121 139 2,800 910 Climbing Boston Center
Tue 09:40:46 AM 43.2061 -75.4767 275° West 112 129 3,800 836 Climbing Boston Center
Tue 09:41:41 AM 43.2031 -75.5167 264° West 109 125 4,500 730 Climbing Boston Center
Tue 09:42:41 AM 43.2039 -75.5594 272° West 112 129 5,200 744 Climbing Boston Center
Tue 09:43:42 AM 43.2069 -75.6050 275° West 121 139 6,000 836 Climbing Boston Center
Tue 09:44:43 AM 43.2056 -75.6506 268° West 118 136 6,900 843 Climbing Boston Center
Tue 09:45:43 AM 43.2042 -75.6961 268° West 117 135 7,700 595 Climbing Boston Center
Tue 09:46:44 AM 43.2050 -75.7444 271° West 123 142 8,100 248 Climbing Boston Center
Tue 09:47:44 AM 43.2033 -75.8042 268° West 166 191 8,200  Climbing Boston Center
Tue 09:48:45 AM 43.1992 -75.8694 265° West 168 193 8,100 -49 Descending Boston Center
Tue 09:49:46 AM 43.1975 -75.9294 268° West 160 184 8,100  Level Boston Center
Tue 09:50:46 AM 43.1933 -75.9889 265° West 159 183 8,100 50 Level Boston Center
Tue 09:51:47 AM 43.1917 -76.0486 268° West 160 184 8,200  Climbing Boston Center
Tue 09:52:48 AM 43.1894 -76.1142 267° West 157 181 8,100  Descending Boston Center
Tue 09:53:48 AM 43.1875 -76.1708 267° West 158 182 8,200 52 Climbing Boston Center
Tue 09:54:43 AM 43.1858 -76.2278 268° West 158 182 8,200 -52 Level Boston Center
Tue 09:55:43 AM 43.1858 -76.2875 270° West 162 186 8,100 -50 Descending Boston Center
Tue 09:56:44 AM 43.1836 -76.3503 267° West 159 183 8,100  Level Boston Center
Tue 09:57:51 AM 43.1817 -76.4128 268° West 157 181 8,100 50 Level Boston Center
Tue 09:58:45 AM 43.1797 -76.4667 267° West 158 182 8,200 52 Climbing Boston Center
Tue 09:59:46 AM 43.1775 -76.5264 267° West 159 183 8,200 -136 Level Boston Center
Tue 10:00:13 AM 43.1739 -76.5575 261° West 160 184 8,000 -211 Descending Cleveland Center
Tue 10:00:43 AM 43.1747 -76.5858 272° West 161 185 8,000 67 Level Cleveland Center
Tue 10:01:43 AM 43.1706 -76.6461 265° West 155 178 8,100  Climbing Cleveland Center
Tue 10:02:44 AM 43.1706 -76.7058 270° West 157 181 8,000  Descending Cleveland Center
Tue 10:03:45 AM 43.1686 -76.7714 268° West 162 186 8,100  Climbing Cleveland Center
Tue 10:04:46 AM 43.1664 -76.8314 267° West 157 181 8,000  Descending Cleveland Center
Tue 10:05:46 AM 43.1642 -76.8942 267° West 164 189 8,100 50 Climbing Cleveland Center
Tue 10:06:46 AM 43.1600 -76.9542 265° West 158 182 8,100 -50 Level Cleveland Center
Tue 10:07:47 AM 43.1536 -77.0172 262° West 163 188 8,000  Descending Cleveland Center
Tue 10:08:48 AM 43.1511 -77.0772 267° West 166 191 8,100 99 Climbing Cleveland Center
Tue 10:09:48 AM 43.1489 -77.1369 267° West 158 182 8,200  Climbing Cleveland Center
Tue 10:10:49 AM 43.1483 -77.1939 269° West 160 184 8,100 -49 Descending Cleveland Center
Tue 10:11:50 AM 43.1419 -77.2597 262° West 159 183 8,100 -52 Level Cleveland Center
Tue 10:12:44 AM 43.1414 -77.3111 269° West 159 183 8,000  Descending Cleveland Center
Tue 10:13:45 AM 43.1347 -77.3711 261° West 159 183 8,100  Climbing Cleveland Center
Tue 10:14:46 AM 43.1303 -77.4397 265° West 163 188 8,000  Descending Cleveland Center
Tue 10:15:46 AM 43.1278 -77.4994 267° West 162 186 8,100  Climbing Cleveland Center
Tue 10:16:53 AM 43.1233 -77.5653 265° West 161 185 8,000  Descending Cleveland Center
Tue 10:17:53 AM 43.1183 -77.6222 263° West 158 182 8,100  Climbing Cleveland Center
Tue 10:19:00 AM 43.1178 -77.6792 269° West 157 181 8,000  Descending Cleveland Center
Tue 10:20:01 AM 43.1028 -77.7483 253° West 152 175 8,100 52 Climbing Cleveland Center
Tue 10:20:55 AM 43.0894 -77.8000 251° West 153 176 8,100 -52 Level Cleveland Center
Tue 10:21:56 AM 43.0742 -77.8547 249° West 154 177 8,000  Descending Cleveland Center
Tue 10:22:56 AM 43.0631 -77.9119 255° West 154 177 8,100  Climbing Cleveland Center
Tue 10:23:57 AM 43.0497 -77.9694 252° West 156 180 8,000  Descending Cleveland Center
Tue 10:24:58 AM 43.0364 -78.0239 251° West 154 177 8,100 50 Climbing Cleveland Center
Tue 10:25:58 AM 43.0231 -78.0814 252° West 154 177 8,100  Level Cleveland Center
Tue 10:28:15 AM 43.0000 -78.2000 255° West 156 180 8,100  Level Buffalo TRACON
Tue 10:29:15 AM 42.9833 -78.2667 251° West 154 177 8,100 -50 Level Buffalo TRACON
Tue 10:30:15 AM 42.9667 -78.3167 246° West 154 177 8,000 -50 Descending Buffalo TRACON
Tue 10:31:15 AM 42.9500 -78.3667 246° West 154 177 8,000 53 Level Buffalo TRACON
Tue 10:32:09 AM 42.9500 -78.4167 270° West 153 176 8,100 50 Climbing Buffalo TRACON
Tue 10:33:15 AM 42.9333 -78.4833 251° West 152 175 8,100  Level Buffalo TRACON
Tue 10:34:15 AM 42.9167 -78.5333 246° West 150 173 8,100  Level Buffalo TRACON
Tue 10:35:15 AM 42.9000 -78.5833 246° West 155 178 8,100  Level Buffalo TRACON
Tue 10:36:09 AM 42.8833 -78.6333 246° West 154 177 8,100  Level Buffalo TRACON
Tue 10:37:03 AM 42.8833 -78.6833 270° West 156 180 8,100  Level Buffalo TRACON
Tue 10:38:03 AM 42.8667 -78.7500 251° West 152 175 8,100 -45 Level Buffalo TRACON
Tue 10:39:16 AM 42.8500 -78.8000 246° West 156 180 8,000  Descending Buffalo TRACON
Tue 10:40:16 AM 42.8333 -78.8667 251° West 152 175 8,100 48 Climbing Buffalo TRACON
Tue 10:41:22 AM 42.8167 -78.9333 251° West 154 177 8,100  Level Buffalo TRACON
Tue 10:42:22 AM 42.8000 -78.9833 246° West 155 178 8,100  Level Buffalo TRACON
Tue 10:43:16 AM 42.8000 -79.0333 270° West 156 180 8,100  Level Buffalo TRACON
Tue 10:44:16 AM 42.7833 -79.0833 246° West 153 176 8,100  Level Buffalo TRACON
Tue 10:45:16 AM 42.7667 -79.1333 246° West 156 180 8,100  Level Buffalo TRACON
Tue 10:46:16 AM 42.7500 -79.2000 251° West 154 177 8,100  Level Buffalo TRACON
Tue 10:47:16 AM 42.7500 -79.2500 270° West 154 177 8,100 -5 Level Buffalo TRACON
Tue 10:49:00 AM 42.7270 -79.3193 246° West  Level FlightAware Approximate
Tue 10:56:00 AM 42.6337 -79.5988 246° West  Level FlightAware Approximate
Tue 10:57:00 AM 42.6233 -79.6413 252° West  Level FlightAware Approximate
Tue 10:58:00 AM 42.6132 -79.6829 252° West  Level FlightAware Approximate
Tue 10:59:00 AM 42.6031 -79.7245 252° West  Level FlightAware Approximate
Tue 11:00:00 AM 42.5929 -79.7661 252° West  Level FlightAware Approximate
Tue 11:01:00 AM 42.5827 -79.8076 252° West  Level FlightAware Approximate
Tue 11:02:00 AM 42.5726 -79.8492 252° West  Level FlightAware Approximate
Tue 11:03:00 AM 42.5624 -79.8907 252° West  Level FlightAware Approximate
Tue 11:04:00 AM 42.5522 -79.9322 252° West  Level FlightAware Approximate
Tue 11:05:00 AM 42.5420 -79.9737 252° West  Level FlightAware Approximate
Tue 11:06:00 AM 42.5317 -80.0152 252° West  Level FlightAware Approximate
Tue 11:07:00 AM 42.5215 -80.0566 251° West  Level FlightAware Approximate
Tue 11:07:33 AM 42.4475 -80.3833 251° West 129 148 8,000  Level Cleveland Center
Tue 11:08:00 AM 42.5112 -80.0981 251° West  Level FlightAware Approximate
Tue 11:08:33 AM 42.4331 -80.4397 251° West 145 167 8,100  Level Cleveland Center
Tue 11:09:00 AM 42.5009 -80.1395 251° West  Level FlightAware Approximate
Tue 11:09:33 AM 42.4206 -80.5044 255° West 156 180 8,200  Level Cleveland Center
Tue 11:10:00 AM 42.4906 -80.1810 251° West  Level FlightAware Approximate
Tue 11:10:33 AM 42.4081 -80.5606 253° West 156 180 8,100  Level Cleveland Center
Tue 11:11:00 AM 42.4803 -80.2224 251° West  Level FlightAware Approximate
Tue 11:11:33 AM 42.3914 -80.6142 247° West 161 185 8,100  Level Cleveland Center
Tue 11:12:33 AM 42.3769 -80.6703 251° West 166 191 8,100  Level Cleveland Center
Tue 11:13:33 AM 42.3622 -80.7264 250° West 166 191 8,100  Level Cleveland Center
Tue 11:14:33 AM 42.3475 -80.7825 250° West 161 185 8,100  Level Cleveland Center
Tue 11:15:34 AM 42.3328 -80.8417 251° West 161 185 8,100  Level Cleveland Center
Tue 11:16:33 AM 42.3158 -80.8947 247° West 166 191 8,100  Level Cleveland Center
Tue 11:17:33 AM 42.3011 -80.9481 250° West 160 184 8,100  Level Cleveland Center
Tue 11:18:33 AM 42.2844 -81.0042 248° West 160 184 8,100  Level Cleveland Center
Tue 11:19:33 AM 42.2736 -81.0544 254° West 160 184 8,100  Level Cleveland Center
Tue 11:20:33 AM 42.2589 -81.1106 250° West 160 184 8,100  Level Cleveland Center
Tue 11:21:33 AM 42.2419 -81.1667 248° West 160 184 8,100  Level Cleveland Center
Tue 11:22:33 AM 42.2250 -81.2197 247° West 165 190 8,100  Level Cleveland Center
Tue 11:23:33 AM 42.2122 -81.2783 254° West 165 190 8,100  Level Cleveland Center
Tue 11:24:33 AM 42.1972 -81.3342 250° West 165 190 8,100  Level Cleveland Center
Tue 11:25:33 AM 42.1803 -81.3900 248° West 165 190 8,100  Level Cleveland Center
Tue 11:26:33 AM 42.1631 -81.4517 249° West 165 190 8,100 -50 Level Cleveland Center
Tue 11:27:33 AM 42.1481 -81.5044 249° West 165 190 8,000  Descending Cleveland Center
Tue 11:28:33 AM 42.1331 -81.5631 251° West 165 190 8,100 50 Climbing Cleveland Center
Tue 11:29:33 AM 42.1178 -81.6189 250° West 165 190 8,100  Level Cleveland Center
Tue 11:30:33 AM 42.1047 -81.6747 253° West 165 190 8,100  Level Cleveland Center
Tue 11:31:33 AM 42.0897 -81.7303 250° West 165 190 8,100 -50 Level Cleveland Center
Tue 11:32:33 AM 42.0767 -81.7861 253° West 165 190 8,000  Descending Cleveland Center
Tue 11:33:33 AM 42.0614 -81.8417 250° West 160 184 8,100 50 Climbing Cleveland Center
Tue 11:34:33 AM 42.0419 -81.8944 244° Southwest 160 184 8,100  Level Cleveland Center
Tue 11:35:33 AM 42.0269 -81.9472 249° West 160 184 8,100  Level Cleveland Center
Tue 11:36:33 AM 42.0139 -81.9972 251° West 160 184 8,100  Level Cleveland Center
Tue 11:37:33 AM 41.9986 -82.0500 249° West 155 178 8,100  Level Cleveland Center
Tue 11:38:33 AM 41.9811 -82.1056 247° West 155 178 8,100 -50 Level Cleveland Center
Tue 11:39:33 AM 41.9678 -82.1583 251° West 150 173 8,000 -50 Descending Cleveland Center
Tue 11:40:33 AM 41.9525 -82.2108 249° West 150 173 8,000  Level Cleveland Center
Tue 11:41:33 AM 41.9372 -82.2636 249° West 150 173 8,000  Level Cleveland Center
Tue 11:42:33 AM 41.9239 -82.3189 252° West 150 173 8,000 100 Level Cleveland Center
Tue 11:43:33 AM 41.9064 -82.3717 246° West 150 173 8,200 78 Climbing Cleveland Center
Tue 11:43:50 AM 41.9039 -82.3911 260° West 154 177 8,100 -85 Descending Cleveland Center
Tue 11:44:44 AM 41.8908 -82.4408 251° West 155 178 8,100  Level Cleveland Center
Tue 11:45:33 AM 41.8797 -82.4794 249° West 150 173 8,100 -90 Level Cleveland Center
Tue 11:45:51 AM 41.8750 -82.5017 254° West 156 180 8,000 -100 Descending Cleveland Center
Tue 11:46:33 AM 41.8642 -82.5319 244° Southwest 150 173 8,000  Level Cleveland Center
Tue 11:46:52 AM 41.8617 -82.5544 262° West 153 176 8,000  Level Cleveland Center
Tue 11:47:33 AM 41.8506 -82.5903 247° West 150 173 8,000 98 Level Cleveland Center
Tue 11:47:53 AM 41.8461 -82.6125 255° West 153 176 8,100  Climbing Cleveland Center
Tue 11:48:33 AM 41.8350 -82.6456 246° West 150 173 8,000 -60 Descending Cleveland Center
Tue 11:49:33 AM 41.8217 -82.7008 252° West 150 173 8,000 50 Level Cleveland Center
Tue 11:50:33 AM 41.8081 -82.7561 252° West 150 173 8,100  Climbing Cleveland Center
Tue 11:51:33 AM 41.7925 -82.8083 248° West 150 173 8,000 -100 Descending Cleveland Center
Tue 11:52:33 AM 41.7808 -82.8636 254° West 150 173 7,900 50 Descending Cleveland Center
Tue 11:53:33 AM 41.7631 -82.9161 246° West 150 173 8,100 Climbing Cleveland Center
Tue 11:55:00 AM 41.7374 -82.9742 239° Southwest  Level FlightAware Approximate
Tue 12:02:00 PM 41.6496 -83.2788 249° West  Level FlightAware Approximate
Tue 12:03:00 PM 41.6372 -83.3222 249° West  Level FlightAware Approximate
Tue 12:04:00 PM 41.6248 -83.3656 249° West  Level FlightAware Approximate
Tue 12:05:00 PM 41.6124 -83.4090 249° West  Level FlightAware Approximate
Tue 12:06:00 PM 41.5999 -83.4524 249° West  Level FlightAware Approximate
Tue 12:07:00 PM 41.5874 -83.4958 249° West  Level FlightAware Approximate
Tue 12:08:00 PM 41.5750 -83.5391 249° West  Level FlightAware Approximate
Tue 12:09:00 PM 41.5625 -83.5825 249° West  Level FlightAware Approximate
Tue 12:10:00 PM 41.5500 -83.6258 249° West  Level FlightAware Approximate
Tue 12:11:00 PM 41.5375 -83.6691 249° West  Level FlightAware Approximate
Tue 12:12:00 PM 41.5239 -83.7118 246° West  Level FlightAware Approximate
Tue 12:13:00 PM 41.5099 -83.7542 246° West  Level FlightAware Approximate
Tue 12:14:00 PM 41.4958 -83.7966 246° West  Level FlightAware Approximate
Tue 12:15:00 PM 41.4817 -83.8390 246° West  Level FlightAware Approximate
Tue 12:16:00 PM 41.4676 -83.8814 246° West  Level FlightAware Approximate
Tue 12:17:00 PM 41.4535 -83.9238 246° West  Level FlightAware Approximate
Tue 12:18:00 PM 41.4394 -83.9661 246° West  Level FlightAware Approximate
Tue 12:19:00 PM 41.4252 -84.0084 246° West  Level FlightAware Approximate
Tue 12:20:00 PM 41.4110 -84.0507 246° West  Level FlightAware Approximate
Tue 12:21:00 PM 41.3969 -84.0930 246° West  Level FlightAware Approximate
Tue 12:22:00 PM 41.3827 -84.1353 249° West  Level FlightAware Approximate
Tue 12:23:00 PM 41.3701 -84.1785 249° West  Level FlightAware Approximate
Tue 12:24:00 PM 41.3574 -84.2215 249° West  Level FlightAware Approximate
Tue 12:25:00 PM 41.3447 -84.2646 249° West  Level FlightAware Approximate
Tue 12:26:00 PM 41.3320 -84.3077 249° West  Level FlightAware Approximate
Tue 12:27:00 PM 41.3192 -84.3507 249° West  Level FlightAware Approximate
Tue 12:28:00 PM 41.3065 -84.3937 248° West  Level FlightAware Approximate
Tue 12:29:00 PM 41.2937 -84.4367 248° West  Level FlightAware Approximate
Tue 12:30:00 PM 41.2809 -84.4797 248° West  Level FlightAware Approximate
Tue 12:31:00 PM 41.2681 -84.5227 248° West  Level FlightAware Approximate
Tue 12:32:00 PM 41.2553 -84.5657 248° West  Level FlightAware Approximate
Tue 12:33:00 PM 41.2417 -84.6082 246° West  Level FlightAware Approximate
Tue 12:34:00 PM 41.2277 -84.6505 246° West  Level FlightAware Approximate
Tue 12:35:00 PM 41.2137 -84.6927 246° West  Level FlightAware Approximate
Tue 12:36:00 PM 41.1996 -84.7349 246° West  Level FlightAware Approximate
Tue 12:37:00 PM 41.1855 -84.7772 246° West  Level FlightAware Approximate
Tue 12:38:00 PM 41.1714 -84.8193 246° West  Level FlightAware Approximate
Tue 12:39:00 PM 41.1573 -84.8615 246° West  Level FlightAware Approximate
Tue 12:40:00 PM 41.1438 -84.9040 248° West  Level FlightAware Approximate
Tue 12:41:00 PM 41.1311 -84.9470 248° West  Level FlightAware Approximate
Tue 12:42:00 PM 41.1183 -84.9898 248° West  Level FlightAware Approximate
Tue 12:43:00 PM 41.1055 -85.0327 248° West  Level FlightAware Approximate
Tue 12:44:00 PM 41.0927 -85.0756 248° West  Level FlightAware Approximate
Tue 12:44:31 PM 40.9681 -85.5022 248° West 148 170 8,100  Level Chicago Center
Tue 12:45:00 PM 41.0799 -85.1184 248° West  Level FlightAware Approximate
Tue 12:45:00 PM 40.9575 -85.5278 241° Southwest 147 169 8,000  Level Chicago Center
Tue 12:45:33 PM 40.9497 -85.5514 246° West 148 170 8,100  Climbing Chicago Center
Tue 12:46:00 PM 41.0671 -85.1612 248° West  Level FlightAware Approximate
Tue 12:46:06 PM 40.9414 -85.5850 252° West 148 170 8,000  Level Chicago Center
Tue 12:46:35 PM 40.9342 -85.6017 240° Southwest 149 171 8,100  Climbing Chicago Center
Tue 12:47:00 PM 41.0542 -85.2040 248° West  Level FlightAware Approximate
Tue 12:47:07 PM 40.9256 -85.6336 250° West 148 170 8,000  Level Chicago Center
Tue 12:47:37 PM 40.9186 -85.6522 244° Southwest 147 169 8,100  Climbing Chicago Center
Tue 12:48:00 PM 41.0413 -85.2468 248° West  Level FlightAware Approximate
Tue 12:48:08 PM 40.9094 -85.6850 250° West 148 170 8,000  Level Chicago Center
Tue 12:48:39 PM 40.9019 -85.7019 240° Southwest 149 171 8,200  Climbing Chicago Center
Tue 12:49:00 PM 41.0285 -85.2896 248° West  Level FlightAware Approximate
Tue 12:49:08 PM 40.8936 -85.7311 249° West 146 168 8,000  Level Chicago Center
Tue 12:49:41 PM 40.8861 -85.7517 244° Southwest 147 169 8,100 98 Climbing Chicago Center
Tue 12:50:09 PM 40.8756 -85.7850 247° West 151 174 8,100  Level Chicago Center
Tue 12:50:43 PM 40.8683 -85.8150 252° West 151 174 8,100 -100 Level Chicago Center
Tue 12:51:09 PM 40.8614 -85.8339 244° Southwest 150 173 8,000 97 Descending Chicago Center
Tue 12:51:45 PM 40.8522 -85.8656 249° West 150 173 8,200  Climbing Chicago Center
Tue 12:52:10 PM 40.8453 -85.8881 248° West 148 170 8,000 -97 Descending Chicago Center
Tue 12:52:47 PM 40.8358 -85.9147 245° Southwest 148 170 8,100  Climbing Chicago Center
Tue 12:53:17 PM 40.8269 -85.9447 249° West 150 173 8,000  Descending Chicago Center
Tue 12:53:49 PM 40.8217 -85.9661 252° West 149 171 8,100 100 Climbing Chicago Center
Tue 12:54:17 PM 40.8108 -85.9906 240° Southwest 147 169 8,100  Level Chicago Center
Tue 12:54:51 PM 40.8050 -86.0144 252° West 146 168 8,100 -98 Level Chicago Center
Tue 12:55:18 PM 40.7947 -86.0419 244° Southwest 147 169 8,000 97 Descending Chicago Center
Tue 12:55:53 PM 40.7881 -86.0642 248° West 147 169 8,200  Climbing Chicago Center
Tue 12:56:19 PM 40.7783 -86.0958 248° West 146 168 8,000  Descending Chicago Center
Tue 12:56:55 PM 40.7689 -86.1236 246° West 147 169 8,200  Climbing Chicago Center
Tue 12:57:13 PM 40.7647 -86.1364 247° West 146 168 8,000 -97 Descending Chicago Center
Tue 12:57:57 PM 40.7522 -86.1717 245° Southwest 146 168 8,100  Climbing Chicago Center
Tue 12:58:14 PM 40.7486 -86.1847 250° West 146 168 8,000  Descending Chicago Center
Tue 12:58:59 PM 40.7358 -86.2208 245° Southwest 146 168 8,100 100 Climbing Chicago Center
Tue 12:59:14 PM 40.7303 -86.2358 244° Southwest 145 167 8,100  Level Chicago Center
Tue 01:00:01 PM 40.7194 -86.2689 247° West 145 167 8,100  Level Chicago Center
Tue 01:01:03 PM 40.7028 -86.3186 246° West 147 169 8,100  Level Chicago Center
Tue 01:02:05 PM 40.6875 -86.3694 248° West 149 171 8,100  Level Chicago Center
Tue 01:03:07 PM 40.6708 -86.4178 246° West 147 169 8,100 48 Level Chicago Center
Tue 01:04:09 PM 40.6514 -86.4792 247° West 151 174 8,200  Climbing Chicago Center
Tue 01:05:11 PM 40.6350 -86.5294 247° West 150 173 8,100 -48 Descending Chicago Center
Tue 01:06:13 PM 40.6178 -86.5792 245° Southwest 150 173 8,100 -52 Level Chicago Center
Tue 01:07:07 PM 40.6000 -86.6256 243° Southwest 149 171 8,000  Descending Chicago Center
Tue 01:08:08 PM 40.5833 -86.6792 248° West 150 173 8,100  Climbing Chicago Center
Tue 01:09:19 PM 40.5672 -86.7292 247° West 150 173 8,000  Descending Chicago Center
Tue 01:10:09 PM 40.5503 -86.7811 247° West 151 174 8,100 55 Climbing Chicago Center
Tue 01:11:09 PM 40.5319 -86.8264 242° Southwest 151 174 8,100 -50 Level Chicago Center
Tue 01:12:10 PM 40.5153 -86.8800 248° West 152 175 8,000  Descending Chicago Center
Tue 01:12:25 PM 40.5122 -86.8922 252° West 151 174 8,100 98 Climbing Chicago Center
Tue 01:13:11 PM 40.4964 -86.9336 243° Southwest 151 174 8,100 97 Level Chicago Center
Tue 01:13:27 PM 40.4939 -86.9419 248° West 151 174 8,200 -100 Climbing Chicago Center
Tue 01:14:11 PM 40.4800 -86.9817 245° Southwest 151 174 8,000  Descending Chicago Center
Tue 01:14:29 PM 40.4772 -86.9917 250° West 150 173 8,200  Climbing Chicago Center
Tue 01:15:12 PM 40.4614 -87.0322 243° Southwest 150 173 8,000 -97 Descending Chicago Center
Tue 01:15:31 PM 40.4592 -87.0414 252° West 151 174 8,100  Climbing Chicago Center
Tue 01:16:18 PM 40.4444 -87.0914 249° West 151 174 8,000  Descending Chicago Center
Tue 01:16:33 PM 40.4450 -87.0931 294° West 152 175 8,100 78 Climbing Chicago Center
Tue 01:17:35 PM 40.4253 -87.1522 246° West 149 171 8,100  Level Chicago Center
Tue 01:18:37 PM 40.4075 -87.2019 245° Southwest 150 173 8,100 48 Level Chicago Center
Tue 01:19:39 PM 40.3906 -87.2511 246° West 150 173 8,200 48 Climbing Chicago Center
Tue 01:20:41 PM 40.3681 -87.2950 236° Southwest 147 169 8,200  Level Chicago Center
Tue 01:21:43 PM 40.3539 -87.3453 250° West 148 170 8,200 -48 Level Chicago Center
Tue 01:22:45 PM 40.3378 -87.4022 250° West 143 165 8,100 -432 Descending Chicago Center
Tue 01:23:48 PM 40.3200 -87.4550 246° West 149 171 7,300 -960 Descending Chicago Center
Tue 01:24:50 PM 40.3039 -87.5067 248° West 151 174 6,100 -968 Descending Chicago Center
Tue 01:25:52 PM 40.2897 -87.5594 251° West 152 175 5,300 -726 Descending Chicago Center
Tue 01:26:54 PM 40.2731 -87.6114 247° West 154 177 4,600 -677 Descending Chicago Center
Tue 01:27:56 PM 40.2511 -87.6742 245° Southwest 156 180 3,900 -581 Descending Chicago Center
Tue 01:28:58 PM 40.2328 -87.7264 245° Southwest 157 181 3,400 -484 Descending Chicago Center
Tue 01:30:00 PM 40.2150 -87.7773 251° West  Level Estimated
Tue 01:37:00 PM 40.0776 -88.1065 252° West  Level FlightAware Approximate
Tue 01:38:00 PM 40.0648 -88.1578 252° West  Level FlightAware Approximate
Tue 01:39:00 PM 40.0519 -88.2092 252° West  Level FlightAware Approximate
Tue 01:40:00 PM 40.0359 -88.2589 246° West  Level FlightAware Approximate
Tue 01:41:00 PM 40.0333 -88.2667 246° West  Level FlightAware Approximate
Tue 01:42:00 PM 40.0388 -88.2778 246° West  Level Estimated
Tue 01:43:00 PM 40.0388 -88.2778 246° West  Level Estimated
Tue 01:44:00 PM 40.0388 -88.2778 246° West  Level Estimated
Tue 01:45:00 PM 40.0388 -88.2778 246° West  Level Estimated
Tue 01:46:00 PM 40.0388 -88.2778 246° West  Level Estimated
Tue 01:47:00 PM 40.0388 -88.2778 246° West  Level Estimated
Tue 01:48:00 PM 40.0388 -88.2778 246° West  Level Estimated
Tue 01:49:00 PM 40.0388 -88.2778 246° West  Level Estimated

Login

Don't have an account? Register now (free) for customized features, flight alerts, and more!